• Join FlightAware (Why Join?)
  • Login
  • US Flag 
05:32PM EDT


 

Airport Tracker/Info


-or-


 

Live Flight TrackerFlight Track Log ✈ TAM3448 ✈ 22-Jun-2013 ✈ SBBR / BSB - SBBE / BEL

Flight Track Log - Related Links

Times and Time Zones

All times are in EDT time to prevent confusion due to time zone crossing. See the TAM3448 flight status page for this flight to view local times or setup timezone preferences in your user account.

Time Position Orientation Groundspeed Altitude Reporting Facility
EDT Latitude Longitude Course Direction KTS MPH feet Rate Location/Type
08:06PM -13.1644 -48.0216 358° North  Level Estimated
08:07PM -13.0645 -48.0256 358° North  Level Estimated
08:08PM -12.9646 -48.0296 358° North  Level Estimated
08:09PM -12.8647 -48.0335 358° North  Level Estimated
08:10PM -12.7647 -48.0375 358° North  Level Estimated
08:11PM -12.6648 -48.0415 358° North  Level Estimated
08:12PM -12.5649 -48.0455 358° North  Level Estimated
08:13PM -12.4649 -48.0494 358° North  Level Estimated
08:14PM -12.3650 -48.0534 358° North  Level Estimated
08:15PM -12.2651 -48.0574 358° North  Level Estimated
08:16PM -12.1651 -48.0613 358° North  Level Estimated
08:17PM -12.0652 -48.0653 358° North  Level Estimated
08:18PM -11.9653 -48.0692 358° North  Level Estimated
08:19PM -11.8654 -48.0732 358° North  Level Estimated
08:20PM -11.7654 -48.0771 358° North  Level Estimated
08:21PM -11.6655 -48.0811 358° North  Level Estimated
08:22PM -11.5656 -48.0850 358° North  Level Estimated
08:23PM -11.4656 -48.0889 358° North  Level Estimated
08:24PM -11.3657 -48.0929 358° North  Level Estimated
08:25PM -11.2658 -48.0968 358° North  Level Estimated
08:26PM -11.1658 -48.1007 358° North  Level Estimated
08:27PM -11.0659 -48.1046 358° North  Level Estimated
08:28PM -10.9660 -48.1086 358° North  Level Estimated
08:29PM -10.8661 -48.1125 358° North  Level Estimated
08:30PM -10.7661 -48.1164 358° North  Level Estimated
08:31PM -10.6662 -48.1203 358° North  Level Estimated
08:32PM -10.5663 -48.1242 358° North  Level Estimated
08:33PM -10.4663 -48.1282 358° North  Level Estimated
08:34PM -10.3664 -48.1321 358° North  Level Estimated
08:35PM -10.2665 -48.1360 358° North  Level Estimated
08:36PM -10.1665 -48.1399 358° North  Level Estimated
08:37PM -10.0666 -48.1438 358° North  Level Estimated
08:38PM -9.9667 -48.1477 358° North  Level Estimated
08:39PM -9.8668 -48.1516 358° North  Level Estimated
08:40PM -9.7668 -48.1554 358° North  Level Estimated
08:41PM -9.6669 -48.1593 358° North  Level Estimated
08:42PM -9.5670 -48.1632 358° North  Level Estimated
08:43PM -9.4670 -48.1671 358° North  Level Estimated
08:44PM -9.3671 -48.1710 358° North  Level Estimated
08:45PM -9.2672 -48.1749 358° North  Level Estimated
08:46PM -9.1672 -48.1788 358° North  Level Estimated
08:47PM -9.0673 -48.1826 358° North  Level Estimated
08:48PM -8.9674 -48.1865 358° North  Level Estimated
08:49PM -8.8675 -48.1904 358° North  Level Estimated
08:50PM -8.7675 -48.1942 358° North  Level Estimated
08:51PM -8.6676 -48.1981 358° North  Level Estimated
08:52PM -8.5677 -48.2020 358° North  Level Estimated
08:53PM -8.4677 -48.2058 358° North  Level Estimated
08:54PM -8.3678 -48.2097 358° North  Level Estimated
08:55PM -8.2679 -48.2136 358° North  Level Estimated
08:56PM -8.1679 -48.2174 358° North  Level Estimated
08:57PM -8.0680 -48.2213 358° North  Level Estimated
08:58PM -7.9681 -48.2251 358° North  Level Estimated
08:59PM -7.8682 -48.2290 358° North  Level Estimated
09:00PM -7.7682 -48.2328 358° North  Level Estimated
09:01PM -7.6683 -48.2367 358° North  Level Estimated
09:02PM -7.5684 -48.2405 358° North  Level Estimated
09:03PM -7.4684 -48.2444 358° North  Level Estimated
09:04PM -7.3685 -48.2482 358° North  Level Estimated
09:05PM -7.2686 -48.2521 358° North  Level Estimated
09:06PM -7.1687 -48.2559 358° North  Level Estimated
09:07PM -7.0687 -48.2598 358° North  Level Estimated
09:08PM -6.9688 -48.2636 358° North  Level Estimated
09:09PM -6.8689 -48.2674 358° North  Level Estimated
09:10PM -6.7689 -48.2713 358° North  Level Estimated
09:11PM -6.6690 -48.2751 358° North  Level Estimated
09:12PM -6.5691 -48.2789 358° North  Level Estimated
09:13PM -6.4691 -48.2827 358° North  Level Estimated
09:14PM -6.3692 -48.2866 358° North  Level Estimated
09:15PM -6.2693 -48.2904 358° North  Level Estimated
09:16PM -6.1694 -48.2942 358° North  Level Estimated
09:17PM -6.0694 -48.2980 358° North  Level Estimated
09:18PM -5.9695 -48.3019 358° North  Level Estimated
09:19PM -5.8695 -48.3057 358° North  Level Estimated
09:20PM -5.7696 -48.3095 358° North  Level Estimated
09:21PM -5.6697 -48.3133 358° North  Level Estimated
09:22PM -5.5697 -48.3172 358° North  Level Estimated
09:23PM -5.4698 -48.3210 358° North  Level Estimated
09:24PM -5.3698 -48.3248 358° North  Level Estimated
09:25PM -5.2699 -48.3286 358° North  Level Estimated
09:26PM -5.1700 -48.3324 358° North  Level Estimated
09:27PM -5.0700 -48.3362 358° North  Level Estimated
09:28PM -4.9701 -48.3400 358° North  Level Estimated
09:29PM -4.8701 -48.3438 358° North  Level Estimated
09:30PM -4.7702 -48.3476 358° North  Level Estimated
09:31PM -4.6703 -48.3514 358° North  Level Estimated
09:32PM -4.5703 -48.3552 358° North  Level Estimated
09:33PM -4.4704 -48.3590 358° North  Level Estimated
09:34PM -4.3704 -48.3628 358° North  Level Estimated
09:35PM -4.2705 -48.3666 358° North  Level Estimated
09:36PM -4.1706 -48.3704 358° North  Level Estimated
09:37PM -4.0706 -48.3742 358° North  Level Estimated
09:38PM -3.9707 -48.3780 358° North  Level Estimated
09:39PM -3.8707 -48.3818 358° North  Level Estimated
09:40PM -3.7708 -48.3856 358° North  Level Estimated
09:41PM -3.6709 -48.3894 358° North  Level Estimated
09:42PM -3.5709 -48.3932 358° North  Level Estimated
09:43PM -3.4710 -48.3970 358° North  Level Estimated
09:44PM -3.3710 -48.4008 358° North  Level Estimated
09:45PM -3.2711 -48.4046 358° North  Level Estimated
09:46PM -3.1712 -48.4084 358° North  Level Estimated
09:47PM -3.0712 -48.4122 358° North  Level Estimated
09:48PM -2.9713 -48.4160 358° North  Level Estimated
09:49PM -2.8713 -48.4198 358° North  Level Estimated
09:50PM -2.7714 -48.4235 358° North  Level Estimated
09:51PM -2.6715 -48.4273 358° North  Level Estimated
09:52PM -2.5715 -48.4311 358° North  Level Estimated
09:53PM -2.4716 -48.4349 358° North  Level Estimated
09:54PM -2.3716 -48.4387 358° North  Level Estimated
09:55PM -2.2717 -48.4425 358° North  Level Estimated
09:56PM -2.1718 -48.4463 358° North  Level Estimated
09:57PM -2.0718 -48.4501 358° North  Level Estimated
09:58PM -1.9719 -48.4538 358° North  Level Estimated
09:59PM -1.8719 -48.4576 358° North  Level Estimated
10:00PM -1.7720 -48.4614 358° North  Level Estimated
10:01PM -1.6721 -48.4652 358° North  Level Estimated
10:02PM -1.5721 -48.4690 358° North  Level Estimated
10:03PM -1.4722 -48.4728 358° North  Level Estimated
10:04PM -1.3793 -48.4763 358° North  Level Estimated
10:05PM -1.3793 -48.4763 270° West  Level Estimated
10:06PM -1.3793 -48.4763 270° West  Level Estimated
10:07PM -1.3793 -48.4763 270° West  Level Estimated